sensor_id;sensor_type;location;lat;lon;timestamp;P1;durP1;ratioP1;P2;durP2;ratioP2
26062;SDS011;13837;48.562;12.108;2023-02-15T00:01:29;50.55;;;37.60;;
26062;SDS011;13837;48.562;12.108;2023-02-15T00:03:55;68.15;;;39.88;;
26062;SDS011;13837;48.562;12.108;2023-02-15T00:06:22;66.30;;;40.03;;
26062;SDS011;13837;48.562;12.108;2023-02-15T00:08:48;67.20;;;38.10;;
26062;SDS011;13837;48.562;12.108;2023-02-15T00:11:15;53.72;;;37.60;;
26062;SDS011;13837;48.562;12.108;2023-02-15T00:13:42;63.83;;;38.92;;
26062;SDS011;13837;48.562;12.108;2023-02-15T00:16:12;64.53;;;41.08;;
26062;SDS011;13837;48.562;12.108;2023-02-15T00:18:38;69.50;;;39.13;;
26062;SDS011;13837;48.562;12.108;2023-02-15T00:21:08;56.75;;;39.00;;
26062;SDS011;13837;48.562;12.108;2023-02-15T00:23:35;57.47;;;37.53;;
26062;SDS011;13837;48.562;12.108;2023-02-15T00:28:31;51.92;;;35.83;;
26062;SDS011;13837;48.562;12.108;2023-02-15T00:33:30;44.58;;;36.25;;
26062;SDS011;13837;48.562;12.108;2023-02-15T00:35:57;54.10;;;36.83;;
26062;SDS011;13837;48.562;12.108;2023-02-15T00:38:23;43.80;;;34.95;;
26062;SDS011;13837;48.562;12.108;2023-02-15T00:40:53;45.25;;;36.45;;
26062;SDS011;13837;48.562;12.108;2023-02-15T00:43:19;43.67;;;36.28;;
26062;SDS011;13837;48.562;12.108;2023-02-15T00:45:45;42.83;;;35.80;;
26062;SDS011;13837;48.562;12.108;2023-02-15T00:48:12;46.15;;;38.05;;
26062;SDS011;13837;48.562;12.108;2023-02-15T00:50:38;58.45;;;37.53;;
26062;SDS011;13837;48.562;12.108;2023-02-15T00:53:04;51.85;;;37.90;;
26062;SDS011;13837;48.562;12.108;2023-02-15T00:55:30;46.15;;;37.08;;
26062;SDS011;13837;48.562;12.108;2023-02-15T00:57:56;44.20;;;38.13;;
26062;SDS011;13837;48.562;12.108;2023-02-15T01:00:22;43.30;;;35.17;;
26062;SDS011;13837;48.562;12.108;2023-02-15T01:02:48;49.88;;;36.30;;
26062;SDS011;13837;48.562;12.108;2023-02-15T01:05:14;44.78;;;33.83;;
26062;SDS011;13837;48.562;12.108;2023-02-15T01:07:40;36.95;;;32.60;;
26062;SDS011;13837;48.562;12.108;2023-02-15T01:10:06;42.17;;;32.45;;
26062;SDS011;13837;48.562;12.108;2023-02-15T01:12:33;43.08;;;33.65;;
26062;SDS011;13837;48.562;12.108;2023-02-15T01:14:59;43.20;;;32.58;;
26062;SDS011;13837;48.562;12.108;2023-02-15T01:17:26;50.05;;;36.20;;
26062;SDS011;13837;48.562;12.108;2023-02-15T01:19:52;46.78;;;35.17;;
26062;SDS011;13837;48.562;12.108;2023-02-15T01:22:18;40.28;;;34.20;;
26062;SDS011;13837;48.562;12.108;2023-02-15T01:24:44;45.72;;;37.55;;
26062;SDS011;13837;48.562;12.108;2023-02-15T01:27:10;43.55;;;34.42;;
26062;SDS011;13837;48.562;12.108;2023-02-15T01:29:37;50.00;;;36.60;;
26062;SDS011;13837;48.562;12.108;2023-02-15T01:32:03;49.35;;;35.83;;
26062;SDS011;13837;48.562;12.108;2023-02-15T01:34:29;54.72;;;38.63;;
26062;SDS011;13837;48.562;12.108;2023-02-15T01:36:56;55.45;;;38.17;;
26062;SDS011;13837;48.562;12.108;2023-02-15T01:39:22;50.03;;;40.22;;
26062;SDS011;13837;48.562;12.108;2023-02-15T01:41:49;61.45;;;38.72;;
26062;SDS011;13837;48.562;12.108;2023-02-15T01:47:01;55.53;;;39.42;;
26062;SDS011;13837;48.562;12.108;2023-02-15T01:49:27;62.78;;;40.00;;
26062;SDS011;13837;48.562;12.108;2023-02-15T01:51:53;61.28;;;40.50;;
26062;SDS011;13837;48.562;12.108;2023-02-15T01:54:24;64.10;;;41.15;;
26062;SDS011;13837;48.562;12.108;2023-02-15T01:56:51;53.40;;;38.78;;
26062;SDS011;13837;48.562;12.108;2023-02-15T01:59:19;56.28;;;41.10;;
26062;SDS011;13837;48.562;12.108;2023-02-15T02:01:48;54.00;;;39.85;;
26062;SDS011;13837;48.562;12.108;2023-02-15T02:04:17;64.80;;;43.35;;
26062;SDS011;13837;48.562;12.108;2023-02-15T02:06:46;65.43;;;43.00;;
26062;SDS011;13837;48.562;12.108;2023-02-15T02:09:12;62.30;;;42.33;;
26062;SDS011;13837;48.562;12.108;2023-02-15T02:11:40;69.30;;;43.13;;
26062;SDS011;13837;48.562;12.108;2023-02-15T02:14:07;79.68;;;45.92;;
26062;SDS011;13837;48.562;12.108;2023-02-15T02:43:11;50.58;;;38.00;;
26062;SDS011;13837;48.562;12.108;2023-02-15T02:45:49;54.88;;;39.60;;
26062;SDS011;13837;48.562;12.108;2023-02-15T02:48:18;65.45;;;39.00;;
26062;SDS011;13837;48.562;12.108;2023-02-15T02:50:47;57.60;;;41.15;;
26062;SDS011;13837;48.562;12.108;2023-02-15T02:53:15;61.65;;;42.15;;
26062;SDS011;13837;48.562;12.108;2023-02-15T03:05:44;72.32;;;41.50;;
26062;SDS011;13837;48.562;12.108;2023-02-15T03:08:13;59.63;;;41.13;;
26062;SDS011;13837;48.562;12.108;2023-02-15T03:10:46;50.80;;;39.60;;
26062;SDS011;13837;48.562;12.108;2023-02-15T03:13:13;56.47;;;39.80;;
26062;SDS011;13837;48.562;12.108;2023-02-15T03:15:40;58.65;;;40.97;;
26062;SDS011;13837;48.562;12.108;2023-02-15T03:18:28;56.42;;;40.25;;
26062;SDS011;13837;48.562;12.108;2023-02-15T03:20:55;59.67;;;42.75;;
26062;SDS011;13837;48.562;12.108;2023-02-15T03:23:24;61.15;;;39.85;;
26062;SDS011;13837;48.562;12.108;2023-02-15T03:25:52;54.28;;;38.60;;
26062;SDS011;13837;48.562;12.108;2023-02-15T03:28:23;52.60;;;38.42;;
26062;SDS011;13837;48.562;12.108;2023-02-15T03:30:52;53.42;;;39.25;;
26062;SDS011;13837;48.562;12.108;2023-02-15T03:33:19;49.13;;;40.35;;
26062;SDS011;13837;48.562;12.108;2023-02-15T03:35:53;74.18;;;39.50;;
26062;SDS011;13837;48.562;12.108;2023-02-15T03:38:25;54.17;;;37.85;;
26062;SDS011;13837;48.562;12.108;2023-02-15T03:40:52;54.80;;;38.22;;
26062;SDS011;13837;48.562;12.108;2023-02-15T03:46:09;51.95;;;46.55;;
26062;SDS011;13837;48.562;12.108;2023-02-15T03:48:42;58.67;;;41.42;;
26062;SDS011;13837;48.562;12.108;2023-02-15T03:51:11;79.22;;;40.78;;
26062;SDS011;13837;48.562;12.108;2023-02-15T03:53:56;74.60;;;39.35;;
26062;SDS011;13837;48.562;12.108;2023-02-15T03:56:23;51.17;;;39.17;;
26062;SDS011;13837;48.562;12.108;2023-02-15T03:58:49;55.90;;;41.38;;
26062;SDS011;13837;48.562;12.108;2023-02-15T04:01:36;56.78;;;40.40;;
26062;SDS011;13837;48.562;12.108;2023-02-15T04:04:22;45.97;;;36.97;;
26062;SDS011;13837;48.562;12.108;2023-02-15T04:06:49;41.90;;;37.28;;
26062;SDS011;13837;48.562;12.108;2023-02-15T04:09:15;42.92;;;36.95;;
26062;SDS011;13837;48.562;12.108;2023-02-15T04:11:59;40.63;;;35.22;;
26062;SDS011;13837;48.562;12.108;2023-02-15T04:14:25;39.75;;;35.75;;
26062;SDS011;13837;48.562;12.108;2023-02-15T04:17:10;61.45;;;42.30;;
26062;SDS011;13837;48.562;12.108;2023-02-15T04:19:36;44.20;;;35.70;;
26062;SDS011;13837;48.562;12.108;2023-02-15T04:22:21;40.13;;;35.95;;
26062;SDS011;13837;48.562;12.108;2023-02-15T04:25:05;38.22;;;34.13;;
26062;SDS011;13837;48.562;12.108;2023-02-15T04:27:38;39.13;;;33.80;;
26062;SDS011;13837;48.562;12.108;2023-02-15T04:30:05;41.45;;;37.13;;
26062;SDS011;13837;48.562;12.108;2023-02-15T04:32:31;41.60;;;37.20;;
26062;SDS011;13837;48.562;12.108;2023-02-15T04:34:58;41.95;;;36.42;;
26062;SDS011;13837;48.562;12.108;2023-02-15T04:37:24;40.40;;;36.00;;
26062;SDS011;13837;48.562;12.108;2023-02-15T04:39:50;40.83;;;35.88;;
26062;SDS011;13837;48.562;12.108;2023-02-15T04:42:16;41.50;;;36.25;;
26062;SDS011;13837;48.562;12.108;2023-02-15T04:44:43;42.15;;;36.50;;
26062;SDS011;13837;48.562;12.108;2023-02-15T04:47:09;40.08;;;35.75;;
26062;SDS011;13837;48.562;12.108;2023-02-15T04:49:35;45.83;;;36.70;;
26062;SDS011;13837;48.562;12.108;2023-02-15T04:52:01;43.10;;;36.95;;
26062;SDS011;13837;48.562;12.108;2023-02-15T04:54:27;41.70;;;37.08;;
26062;SDS011;13837;48.562;12.108;2023-02-15T04:56:53;43.00;;;36.67;;
26062;SDS011;13837;48.562;12.108;2023-02-15T04:59:19;41.22;;;35.75;;
26062;SDS011;13837;48.562;12.108;2023-02-15T05:01:45;80.15;;;38.83;;
26062;SDS011;13837;48.562;12.108;2023-02-15T05:04:11;43.80;;;36.92;;
26062;SDS011;13837;48.562;12.108;2023-02-15T05:06:37;48.17;;;36.97;;
26062;SDS011;13837;48.562;12.108;2023-02-15T05:09:03;47.00;;;36.75;;
26062;SDS011;13837;48.562;12.108;2023-02-15T05:11:29;42.28;;;36.53;;
26062;SDS011;13837;48.562;12.108;2023-02-15T05:13:56;43.72;;;37.05;;
26062;SDS011;13837;48.562;12.108;2023-02-15T05:16:22;43.28;;;36.28;;
26062;SDS011;13837;48.562;12.108;2023-02-15T05:18:48;47.38;;;36.58;;
26062;SDS011;13837;48.562;12.108;2023-02-15T05:21:14;48.03;;;37.33;;
26062;SDS011;13837;48.562;12.108;2023-02-15T05:23:41;51.45;;;39.13;;
26062;SDS011;13837;48.562;12.108;2023-02-15T05:26:11;47.88;;;36.65;;
26062;SDS011;13837;48.562;12.108;2023-02-15T05:28:56;103.20;;;38.55;;
26062;SDS011;13837;48.562;12.108;2023-02-15T05:31:22;45.50;;;38.17;;
26062;SDS011;13837;48.562;12.108;2023-02-15T05:33:48;45.17;;;35.78;;
26062;SDS011;13837;48.562;12.108;2023-02-15T05:36:14;48.58;;;39.95;;
26062;SDS011;13837;48.562;12.108;2023-02-15T05:38:40;46.60;;;39.03;;
26062;SDS011;13837;48.562;12.108;2023-02-15T05:41:07;49.13;;;39.15;;
26062;SDS011;13837;48.562;12.108;2023-02-15T05:43:33;44.00;;;38.95;;
26062;SDS011;13837;48.562;12.108;2023-02-15T05:46:00;42.95;;;37.58;;
26062;SDS011;13837;48.562;12.108;2023-02-15T05:48:27;45.67;;;36.58;;
26062;SDS011;13837;48.562;12.108;2023-02-15T05:51:12;51.38;;;37.92;;
26062;SDS011;13837;48.562;12.108;2023-02-15T05:53:40;47.05;;;37.38;;
26062;SDS011;13837;48.562;12.108;2023-02-15T05:56:06;43.08;;;38.15;;
26062;SDS011;13837;48.562;12.108;2023-02-15T05:58:34;49.70;;;37.58;;
26062;SDS011;13837;48.562;12.108;2023-02-15T06:01:07;49.83;;;38.85;;
26062;SDS011;13837;48.562;12.108;2023-02-15T06:03:33;45.42;;;38.88;;
26062;SDS011;13837;48.562;12.108;2023-02-15T06:05:59;46.92;;;41.78;;
26062;SDS011;13837;48.562;12.108;2023-02-15T06:08:25;47.58;;;37.30;;
26062;SDS011;13837;48.562;12.108;2023-02-15T06:10:51;41.63;;;37.17;;
26062;SDS011;13837;48.562;12.108;2023-02-15T06:13:17;43.20;;;37.83;;
26062;SDS011;13837;48.562;12.108;2023-02-15T06:15:43;45.05;;;38.15;;
26062;SDS011;13837;48.562;12.108;2023-02-15T06:18:09;49.60;;;40.00;;
26062;SDS011;13837;48.562;12.108;2023-02-15T06:20:35;66.15;;;40.03;;
26062;SDS011;13837;48.562;12.108;2023-02-15T06:23:01;45.92;;;37.53;;
26062;SDS011;13837;48.562;12.108;2023-02-15T06:25:27;45.03;;;39.17;;
26062;SDS011;13837;48.562;12.108;2023-02-15T06:27:54;49.83;;;39.83;;
26062;SDS011;13837;48.562;12.108;2023-02-15T06:30:20;59.33;;;40.17;;
26062;SDS011;13837;48.562;12.108;2023-02-15T06:32:46;63.05;;;40.10;;
26062;SDS011;13837;48.562;12.108;2023-02-15T06:35:12;43.28;;;38.63;;
26062;SDS011;13837;48.562;12.108;2023-02-15T06:37:38;47.45;;;40.00;;
26062;SDS011;13837;48.562;12.108;2023-02-15T06:40:04;45.15;;;37.13;;
26062;SDS011;13837;48.562;12.108;2023-02-15T06:42:31;49.60;;;39.38;;
26062;SDS011;13837;48.562;12.108;2023-02-15T06:44:57;49.28;;;39.90;;
26062;SDS011;13837;48.562;12.108;2023-02-15T06:47:25;44.13;;;38.75;;
26062;SDS011;13837;48.562;12.108;2023-02-15T06:49:51;56.83;;;40.50;;
26062;SDS011;13837;48.562;12.108;2023-02-15T06:52:17;45.00;;;38.83;;
26062;SDS011;13837;48.562;12.108;2023-02-15T06:54:43;51.97;;;39.45;;
26062;SDS011;13837;48.562;12.108;2023-02-15T06:57:09;47.95;;;40.40;;
26062;SDS011;13837;48.562;12.108;2023-02-15T06:59:35;49.47;;;41.28;;
26062;SDS011;13837;48.562;12.108;2023-02-15T07:02:01;49.75;;;40.58;;
26062;SDS011;13837;48.562;12.108;2023-02-15T07:04:27;50.05;;;40.22;;
26062;SDS011;13837;48.562;12.108;2023-02-15T07:06:54;47.05;;;36.67;;
26062;SDS011;13837;48.562;12.108;2023-02-15T07:09:20;45.85;;;37.15;;
26062;SDS011;13837;48.562;12.108;2023-02-15T07:11:47;45.00;;;39.33;;
26062;SDS011;13837;48.562;12.108;2023-02-15T07:14:31;46.45;;;39.67;;
26062;SDS011;13837;48.562;12.108;2023-02-15T07:16:58;45.08;;;38.65;;
26062;SDS011;13837;48.562;12.108;2023-02-15T07:19:24;47.95;;;39.13;;
26062;SDS011;13837;48.562;12.108;2023-02-15T07:21:50;47.75;;;39.45;;
26062;SDS011;13837;48.562;12.108;2023-02-15T07:24:16;48.08;;;39.30;;
26062;SDS011;13837;48.562;12.108;2023-02-15T07:26:42;47.60;;;39.40;;
26062;SDS011;13837;48.562;12.108;2023-02-15T07:29:08;42.80;;;37.70;;
26062;SDS011;13837;48.562;12.108;2023-02-15T07:31:34;44.40;;;39.55;;
26062;SDS011;13837;48.562;12.108;2023-02-15T07:34:00;44.42;;;38.35;;
26062;SDS011;13837;48.562;12.108;2023-02-15T07:36:26;43.13;;;38.58;;
26062;SDS011;13837;48.562;12.108;2023-02-15T07:38:52;47.13;;;38.10;;
26062;SDS011;13837;48.562;12.108;2023-02-15T07:41:18;44.10;;;38.60;;
26062;SDS011;13837;48.562;12.108;2023-02-15T07:43:45;42.50;;;37.90;;
26062;SDS011;13837;48.562;12.108;2023-02-15T07:46:12;42.90;;;38.20;;
26062;SDS011;13837;48.562;12.108;2023-02-15T07:48:39;44.35;;;38.58;;
26062;SDS011;13837;48.562;12.108;2023-02-15T07:51:06;43.78;;;38.17;;
26062;SDS011;13837;48.562;12.108;2023-02-15T07:53:33;47.00;;;38.70;;
26062;SDS011;13837;48.562;12.108;2023-02-15T07:56:00;44.95;;;39.47;;
26062;SDS011;13837;48.562;12.108;2023-02-15T07:58:26;43.80;;;39.03;;
26062;SDS011;13837;48.562;12.108;2023-02-15T08:01:12;41.15;;;36.65;;
26062;SDS011;13837;48.562;12.108;2023-02-15T08:03:39;39.88;;;35.88;;
26062;SDS011;13837;48.562;12.108;2023-02-15T08:06:05;41.65;;;35.83;;
26062;SDS011;13837;48.562;12.108;2023-02-15T08:08:33;43.33;;;37.17;;
26062;SDS011;13837;48.562;12.108;2023-02-15T08:13:47;49.15;;;38.58;;
26062;SDS011;13837;48.562;12.108;2023-02-15T08:16:30;51.53;;;39.50;;
26062;SDS011;13837;48.562;12.108;2023-02-15T08:18:57;50.05;;;39.83;;
26062;SDS011;13837;48.562;12.108;2023-02-15T08:21:24;41.15;;;36.85;;
26062;SDS011;13837;48.562;12.108;2023-02-15T08:23:50;40.08;;;35.88;;
26062;SDS011;13837;48.562;12.108;2023-02-15T08:26:17;44.22;;;39.42;;
26062;SDS011;13837;48.562;12.108;2023-02-15T08:28:43;43.25;;;38.65;;
26062;SDS011;13837;48.562;12.108;2023-02-15T08:31:12;44.30;;;39.33;;
26062;SDS011;13837;48.562;12.108;2023-02-15T08:33:40;41.92;;;37.40;;
26062;SDS011;13837;48.562;12.108;2023-02-15T08:36:08;39.10;;;35.22;;
26062;SDS011;13837;48.562;12.108;2023-02-15T08:38:34;40.15;;;35.80;;
26062;SDS011;13837;48.562;12.108;2023-02-15T08:41:10;43.17;;;36.38;;
26062;SDS011;13837;48.562;12.108;2023-02-15T08:43:36;39.65;;;35.55;;
26062;SDS011;13837;48.562;12.108;2023-02-15T08:46:04;37.95;;;34.00;;
26062;SDS011;13837;48.562;12.108;2023-02-15T08:48:30;40.67;;;36.47;;
26062;SDS011;13837;48.562;12.108;2023-02-15T08:50:56;41.10;;;35.33;;
26062;SDS011;13837;48.562;12.108;2023-02-15T08:53:22;39.85;;;35.20;;
26062;SDS011;13837;48.562;12.108;2023-02-15T08:55:57;40.05;;;35.83;;
26062;SDS011;13837;48.562;12.108;2023-02-15T08:58:23;44.40;;;36.28;;
26062;SDS011;13837;48.562;12.108;2023-02-15T09:00:50;40.90;;;36.13;;
26062;SDS011;13837;48.562;12.108;2023-02-15T09:03:16;42.72;;;38.08;;
26062;SDS011;13837;48.562;12.108;2023-02-15T09:05:42;40.10;;;34.97;;
26062;SDS011;13837;48.562;12.108;2023-02-15T09:08:08;37.95;;;34.13;;
26062;SDS011;13837;48.562;12.108;2023-02-15T09:10:35;40.28;;;35.78;;
26062;SDS011;13837;48.562;12.108;2023-02-15T09:13:01;40.17;;;35.80;;
26062;SDS011;13837;48.562;12.108;2023-02-15T09:15:27;40.40;;;36.28;;
26062;SDS011;13837;48.562;12.108;2023-02-15T09:17:53;39.35;;;35.05;;
26062;SDS011;13837;48.562;12.108;2023-02-15T09:20:19;41.30;;;36.88;;
26062;SDS011;13837;48.562;12.108;2023-02-15T09:22:45;39.92;;;35.63;;
26062;SDS011;13837;48.562;12.108;2023-02-15T09:25:11;38.17;;;34.05;;
26062;SDS011;13837;48.562;12.108;2023-02-15T09:27:38;39.28;;;35.38;;
26062;SDS011;13837;48.562;12.108;2023-02-15T09:30:06;38.65;;;34.55;;
26062;SDS011;13837;48.562;12.108;2023-02-15T09:32:32;38.65;;;34.90;;
26062;SDS011;13837;48.562;12.108;2023-02-15T09:34:58;38.97;;;34.75;;
26062;SDS011;13837;48.562;12.108;2023-02-15T09:37:24;39.47;;;35.35;;
26062;SDS011;13837;48.562;12.108;2023-02-15T09:39:50;39.83;;;35.65;;
26062;SDS011;13837;48.562;12.108;2023-02-15T09:47:57;45.58;;;38.50;;
26062;SDS011;13837;48.562;12.108;2023-02-15T10:06:38;44.92;;;37.30;;
26062;SDS011;13837;48.562;12.108;2023-02-15T10:25:12;41.78;;;36.60;;
26062;SDS011;13837;48.562;12.108;2023-02-15T10:27:45;42.08;;;37.25;;
26062;SDS011;13837;48.562;12.108;2023-02-15T10:30:13;45.78;;;38.22;;
26062;SDS011;13837;48.562;12.108;2023-02-15T10:46:21;45.78;;;37.65;;
26062;SDS011;13837;48.562;12.108;2023-02-15T10:48:31;42.85;;;36.67;;
26062;SDS011;13837;48.562;12.108;2023-02-15T10:51:00;42.40;;;37.35;;
26062;SDS011;13837;48.562;12.108;2023-02-15T11:01:22;44.75;;;38.20;;
26062;SDS011;13837;48.562;12.108;2023-02-15T11:06:17;45.35;;;37.75;;
26062;SDS011;13837;48.562;12.108;2023-02-15T11:08:46;43.53;;;36.28;;
26062;SDS011;13837;48.562;12.108;2023-02-15T11:11:21;39.33;;;34.92;;
26062;SDS011;13837;48.562;12.108;2023-02-15T11:13:49;40.95;;;36.03;;
26062;SDS011;13837;48.562;12.108;2023-02-15T11:16:51;43.58;;;37.88;;
26062;SDS011;13837;48.562;12.108;2023-02-15T11:21:39;42.65;;;37.38;;
26062;SDS011;13837;48.562;12.108;2023-02-15T11:24:10;42.17;;;37.40;;
26062;SDS011;13837;48.562;12.108;2023-02-15T11:26:39;46.67;;;37.55;;
26062;SDS011;13837;48.562;12.108;2023-02-15T11:29:15;47.25;;;39.03;;
26062;SDS011;13837;48.562;12.108;2023-02-15T11:31:44;40.63;;;36.20;;
26062;SDS011;13837;48.562;12.108;2023-02-15T11:34:13;44.92;;;37.22;;
26062;SDS011;13837;48.562;12.108;2023-02-15T11:36:43;43.55;;;37.15;;
26062;SDS011;13837;48.562;12.108;2023-02-15T11:39:11;41.65;;;37.25;;
26062;SDS011;13837;48.562;12.108;2023-02-15T11:41:44;44.50;;;37.97;;
26062;SDS011;13837;48.562;12.108;2023-02-15T11:44:24;42.92;;;37.75;;
26062;SDS011;13837;48.562;12.108;2023-02-15T11:46:52;43.70;;;36.83;;
26062;SDS011;13837;48.562;12.108;2023-02-15T11:49:31;43.35;;;38.42;;
26062;SDS011;13837;48.562;12.108;2023-02-15T11:54:26;47.72;;;38.53;;
26062;SDS011;13837;48.562;12.108;2023-02-15T11:56:52;45.85;;;39.55;;
26062;SDS011;13837;48.562;12.108;2023-02-15T11:59:21;47.97;;;38.58;;
26062;SDS011;13837;48.562;12.108;2023-02-15T12:01:50;48.80;;;38.65;;
26062;SDS011;13837;48.562;12.108;2023-02-15T12:04:28;50.03;;;38.47;;
26062;SDS011;13837;48.562;12.108;2023-02-15T12:07:09;48.42;;;43.78;;
26062;SDS011;13837;48.562;12.108;2023-02-15T12:12:26;43.35;;;36.17;;
26062;SDS011;13837;48.562;12.108;2023-02-15T12:14:54;42.45;;;36.75;;
26062;SDS011;13837;48.562;12.108;2023-02-15T12:17:20;41.83;;;36.83;;
26062;SDS011;13837;48.562;12.108;2023-02-15T12:19:47;44.40;;;36.50;;
26062;SDS011;13837;48.562;12.108;2023-02-15T12:22:30;42.63;;;35.65;;
26062;SDS011;13837;48.562;12.108;2023-02-15T12:25:01;45.28;;;38.22;;
26062;SDS011;13837;48.562;12.108;2023-02-15T12:27:29;42.78;;;36.88;;
26062;SDS011;13837;48.562;12.108;2023-02-15T12:30:00;46.58;;;38.28;;
26062;SDS011;13837;48.562;12.108;2023-02-15T12:32:31;41.10;;;36.30;;
26062;SDS011;13837;48.562;12.108;2023-02-15T12:35:19;45.03;;;36.83;;
26062;SDS011;13837;48.562;12.108;2023-02-15T12:38:48;44.20;;;37.65;;
26062;SDS011;13837;48.562;12.108;2023-02-15T12:40:42;45.75;;;36.47;;
26062;SDS011;13837;48.562;12.108;2023-02-15T12:43:29;42.58;;;35.05;;
26062;SDS011;13837;48.562;12.108;2023-02-15T12:46:12;41.45;;;36.63;;
26062;SDS011;13837;48.562;12.108;2023-02-15T12:48:41;44.08;;;36.78;;
26062;SDS011;13837;48.562;12.108;2023-02-15T12:51:08;40.53;;;35.97;;
26062;SDS011;13837;48.562;12.108;2023-02-15T12:53:39;34.67;;;31.10;;
26062;SDS011;13837;48.562;12.108;2023-02-15T12:56:06;46.35;;;36.17;;
26062;SDS011;13837;48.562;12.108;2023-02-15T13:03:27;41.97;;;36.03;;
26062;SDS011;13837;48.562;12.108;2023-02-15T13:05:54;43.42;;;35.15;;
26062;SDS011;13837;48.562;12.108;2023-02-15T13:08:21;45.30;;;36.55;;
26062;SDS011;13837;48.562;12.108;2023-02-15T13:10:56;42.53;;;36.65;;
26062;SDS011;13837;48.562;12.108;2023-02-15T13:13:24;40.25;;;35.53;;
26062;SDS011;13837;48.562;12.108;2023-02-15T13:15:52;41.13;;;36.53;;
26062;SDS011;13837;48.562;12.108;2023-02-15T13:18:21;41.03;;;35.00;;
26062;SDS011;13837;48.562;12.108;2023-02-15T13:20:49;41.40;;;36.60;;
26062;SDS011;13837;48.562;12.108;2023-02-15T13:23:24;40.40;;;35.53;;
26062;SDS011;13837;48.562;12.108;2023-02-15T13:25:52;42.17;;;35.70;;
26062;SDS011;13837;48.562;12.108;2023-02-15T13:28:22;46.05;;;36.35;;
26062;SDS011;13837;48.562;12.108;2023-02-15T13:30:49;52.55;;;37.97;;
26062;SDS011;13837;48.562;12.108;2023-02-15T13:41:29;43.13;;;34.95;;
26062;SDS011;13837;48.562;12.108;2023-02-15T13:49:12;42.28;;;36.38;;
26062;SDS011;13837;48.562;12.108;2023-02-15T14:14:44;46.72;;;37.35;;
26062;SDS011;13837;48.562;12.108;2023-02-15T14:20:03;47.08;;;37.55;;
26062;SDS011;13837;48.562;12.108;2023-02-15T14:27:52;44.80;;;38.03;;
26062;SDS011;13837;48.562;12.108;2023-02-15T14:30:22;44.05;;;37.85;;
26062;SDS011;13837;48.562;12.108;2023-02-15T14:32:51;47.50;;;38.33;;
26062;SDS011;13837;48.562;12.108;2023-02-15T14:35:20;46.85;;;37.15;;
26062;SDS011;13837;48.562;12.108;2023-02-15T14:43:19;48.40;;;39.67;;
26062;SDS011;13837;48.562;12.108;2023-02-15T14:45:56;46.40;;;37.40;;
26062;SDS011;13837;48.562;12.108;2023-02-15T14:48:31;48.22;;;39.05;;
26062;SDS011;13837;48.562;12.108;2023-02-15T14:50:59;50.03;;;40.95;;
26062;SDS011;13837;48.562;12.108;2023-02-15T14:58:32;50.30;;;38.72;;
26062;SDS011;13837;48.562;12.108;2023-02-15T15:01:08;51.53;;;40.10;;
26062;SDS011;13837;48.562;12.108;2023-02-15T15:03:35;52.20;;;41.55;;
26062;SDS011;13837;48.562;12.108;2023-02-15T15:06:02;47.13;;;39.50;;
26062;SDS011;13837;48.562;12.108;2023-02-15T15:08:33;47.30;;;39.17;;
26062;SDS011;13837;48.562;12.108;2023-02-15T15:13:53;52.10;;;40.47;;
26062;SDS011;13837;48.562;12.108;2023-02-15T15:18:52;60.85;;;43.60;;
26062;SDS011;13837;48.562;12.108;2023-02-15T15:24:04;56.33;;;40.42;;
26062;SDS011;13837;48.562;12.108;2023-02-15T15:26:32;53.35;;;41.42;;
26062;SDS011;13837;48.562;12.108;2023-02-15T15:29:02;60.20;;;43.88;;
26062;SDS011;13837;48.562;12.108;2023-02-15T15:31:47;59.25;;;44.45;;
26062;SDS011;13837;48.562;12.108;2023-02-15T15:34:19;58.95;;;43.35;;
26062;SDS011;13837;48.562;12.108;2023-02-15T15:37:09;59.25;;;44.10;;
26062;SDS011;13837;48.562;12.108;2023-02-15T15:50:12;61.33;;;42.50;;
26062;SDS011;13837;48.562;12.108;2023-02-15T15:52:38;57.63;;;43.47;;
26062;SDS011;13837;48.562;12.108;2023-02-15T15:55:13;64.63;;;44.97;;
26062;SDS011;13837;48.562;12.108;2023-02-15T15:57:41;73.15;;;48.75;;
26062;SDS011;13837;48.562;12.108;2023-02-15T16:02:52;70.68;;;48.33;;
26062;SDS011;13837;48.562;12.108;2023-02-15T16:05:18;73.28;;;44.85;;
26062;SDS011;13837;48.562;12.108;2023-02-15T16:07:44;63.40;;;43.67;;
26062;SDS011;13837;48.562;12.108;2023-02-15T16:12:46;64.55;;;44.03;;
26062;SDS011;13837;48.562;12.108;2023-02-15T16:15:16;67.95;;;45.25;;
26062;SDS011;13837;48.562;12.108;2023-02-15T16:17:43;69.50;;;47.27;;
26062;SDS011;13837;48.562;12.108;2023-02-15T16:20:18;63.75;;;45.35;;
26062;SDS011;13837;48.562;12.108;2023-02-15T16:22:49;65.85;;;47.33;;
26062;SDS011;13837;48.562;12.108;2023-02-15T16:25:37;73.53;;;53.15;;
26062;SDS011;13837;48.562;12.108;2023-02-15T16:28:07;75.45;;;54.63;;
26062;SDS011;13837;48.562;12.108;2023-02-15T16:30:34;57.60;;;44.60;;
26062;SDS011;13837;48.562;12.108;2023-02-15T16:38:30;59.60;;;44.53;;
26062;SDS011;13837;48.562;12.108;2023-02-15T16:41:00;68.68;;;48.30;;
26062;SDS011;13837;48.562;12.108;2023-02-15T16:43:26;65.10;;;46.33;;
26062;SDS011;13837;48.562;12.108;2023-02-15T16:45:58;67.88;;;47.03;;
26062;SDS011;13837;48.562;12.108;2023-02-15T16:48:28;66.45;;;45.83;;
26062;SDS011;13837;48.562;12.108;2023-02-15T16:50:55;63.00;;;46.05;;
26062;SDS011;13837;48.562;12.108;2023-02-15T16:53:26;61.67;;;45.28;;
26062;SDS011;13837;48.562;12.108;2023-02-15T16:55:54;64.65;;;45.80;;
26062;SDS011;13837;48.562;12.108;2023-02-15T16:58:28;66.10;;;46.33;;
26062;SDS011;13837;48.562;12.108;2023-02-15T17:00:55;64.60;;;45.67;;
26062;SDS011;13837;48.562;12.108;2023-02-15T17:03:23;70.38;;;46.67;;
26062;SDS011;13837;48.562;12.108;2023-02-15T17:05:51;71.72;;;50.83;;
26062;SDS011;13837;48.562;12.108;2023-02-15T17:13:29;68.72;;;48.53;;
26062;SDS011;13837;48.562;12.108;2023-02-15T17:18:40;68.13;;;49.20;;
26062;SDS011;13837;48.562;12.108;2023-02-15T17:21:13;71.25;;;46.33;;
26062;SDS011;13837;48.562;12.108;2023-02-15T17:23:49;75.53;;;48.45;;
26062;SDS011;13837;48.562;12.108;2023-02-15T17:26:23;70.32;;;48.45;;
26062;SDS011;13837;48.562;12.108;2023-02-15T17:28:52;72.80;;;47.15;;
26062;SDS011;13837;48.562;12.108;2023-02-15T17:31:21;66.15;;;47.30;;
26062;SDS011;13837;48.562;12.108;2023-02-15T17:33:51;77.55;;;49.90;;
26062;SDS011;13837;48.562;12.108;2023-02-15T17:36:20;72.57;;;48.95;;
26062;SDS011;13837;48.562;12.108;2023-02-15T17:41:28;73.05;;;49.30;;
26062;SDS011;13837;48.562;12.108;2023-02-15T17:43:54;72.28;;;48.55;;
26062;SDS011;13837;48.562;12.108;2023-02-15T17:46:21;68.55;;;48.63;;
26062;SDS011;13837;48.562;12.108;2023-02-15T17:48:49;74.38;;;49.80;;
26062;SDS011;13837;48.562;12.108;2023-02-15T17:51:16;68.47;;;49.87;;
26062;SDS011;13837;48.562;12.108;2023-02-15T17:53:43;67.38;;;49.08;;
26062;SDS011;13837;48.562;12.108;2023-02-15T17:56:33;76.55;;;50.78;;
26062;SDS011;13837;48.562;12.108;2023-02-15T17:59:00;75.00;;;51.08;;